Time,TemperatureF,DewpointF,PressureIn,WindDirection,WindDirectionDegrees,WindSpeedMPH,WindSpeedGustMPH,Humidity,HourlyPrecipIn,Conditions,Clouds,dailyrainin,SoftwareType,DateUTC
2013-08-07 00:02:00,66.2,65.2,29.85,SE,142,0.1,0.4,97,0.00,,,0.00,WUHU216HW,2013-08-07 04:02:00,
2013-08-07 00:05:00,66.2,65.2,29.85,SSE,158,0.1,0.2,97,0.00,,,0.00,WUHU216HW,2013-08-07 04:05:00,
2013-08-07 00:06:00,66.2,65.2,29.85,North,0,0.0,0.0,97,0.00,,,0.00,WUHU216HW,2013-08-07 04:06:00,
2013-08-07 00:08:00,66.1,65.1,29.85,North,0,0.0,0.0,97,0.00,,,0.00,WUHU216HW,2013-08-07 04:08:00,
2013-08-07 00:11:00,66.1,65.1,29.85,North,0,0.0,0.0,97,0.00,,,0.00,WUHU216HW,2013-08-07 04:11:00,
2013-08-07 00:16:00,66.1,65.1,29.85,North,0,0.0,0.0,97,0.00,,,0.00,WUHU216HW,2013-08-07 04:16:00,
2013-08-07 00:21:00,65.9,64.9,29.85,North,0,0.0,0.0,97,0.00,,,0.00,WUHU216HW,2013-08-07 04:21:00,
2013-08-07 00:26:00,65.9,64.9,29.85,North,0,0.0,0.0,97,0.00,,,0.00,WUHU216HW,2013-08-07 04:26:00,
2013-08-07 00:31:00,65.9,64.9,29.85,SSW,203,0.1,0.4,97,0.00,,,0.00,WUHU216HW,2013-08-07 04:31:00,
2013-08-07 00:36:00,65.9,64.9,29.85,North,0,0.0,0.0,97,0.00,,,0.00,WUHU216HW,2013-08-07 04:36:00,
2013-08-07 00:41:00,65.9,64.9,29.84,SSE,158,0.4,0.4,97,0.00,,,0.00,WUHU216HW,2013-08-07 04:41:00,
2013-08-07 00:46:00,65.7,64.7,29.84,SE,128,0.7,0.9,97,0.00,,,0.00,WUHU216HW,2013-08-07 04:46:00,
2013-08-07 00:51:00,65.7,64.7,29.84,SE,135,0.3,0.4,97,0.00,,,0.00,WUHU216HW,2013-08-07 04:51:00,
2013-08-07 00:56:00,65.9,64.9,29.84,South,180,0.3,0.7,97,0.00,,,0.00,WUHU216HW,2013-08-07 04:56:00,
2013-08-07 01:01:00,65.9,64.9,29.84,ENE,68,0.2,0.7,97,0.00,,,0.00,WUHU216HW,2013-08-07 05:01:00,
2013-08-07 01:06:00,66.1,65.1,29.84,WSW,237,0.6,2.2,97,0.00,,,0.00,WUHU216HW,2013-08-07 05:06:00,
2013-08-07 01:11:00,65.9,64.9,29.84,SSW,211,0.4,0.9,97,0.00,,,0.00,WUHU216HW,2013-08-07 05:11:00,
2013-08-07 01:16:00,65.9,64.9,29.84,North,0,0.0,0.0,97,0.00,,,0.00,WUHU216HW,2013-08-07 05:16:00,
2013-08-07 01:21:00,65.5,64.5,29.84,SW,225,0.2,0.4,97,0.00,,,0.00,WUHU216HW,2013-08-07 05:21:00,
2013-08-07 01:26:00,65.5,64.5,29.84,SSW,203,0.1,0.7,97,0.00,,,0.00,WUHU216HW,2013-08-07 05:26:00,
2013-08-07 01:31:00,65.3,64.3,29.83,SW,228,0.3,0.4,97,0.00,,,0.00,WUHU216HW,2013-08-07 05:31:00,
2013-08-07 01:36:00,65.5,64.5,29.83,SE,135,0.1,0.2,97,0.00,,,0.00,WUHU216HW,2013-08-07 05:36:00,
2013-08-07 01:41:00,65.5,64.5,29.83,SW,225,0.3,1.1,97,0.00,,,0.00,WUHU216HW,2013-08-07 05:41:00,
2013-08-07 01:46:00,65.7,64.7,29.83,North,0,0.0,0.0,97,0.00,,,0.00,WUHU216HW,2013-08-07 05:46:00,
2013-08-07 01:51:00,65.7,64.7,29.83,North,0,0.0,0.0,97,0.00,,,0.00,WUHU216HW,2013-08-07 05:51:00,
2013-08-07 01:56:00,65.7,64.7,29.83,ESE,120,0.2,0.4,97,0.00,,,0.00,WUHU216HW,2013-08-07 05:56:00,
2013-08-07 02:01:00,65.7,64.7,29.82,WSW,254,1.1,1.6,97,0.00,,,0.00,WUHU216HW,2013-08-07 06:01:00,
2013-08-07 02:06:00,65.5,64.5,29.82,North,0,0.4,0.7,97,0.00,,,0.00,WUHU216HW,2013-08-07 06:06:00,
2013-08-07 02:11:00,65.5,64.5,29.83,SW,219,0.4,0.7,97,0.00,,,0.00,WUHU216HW,2013-08-07 06:11:00,
2013-08-07 02:16:00,65.5,64.5,29.83,WSW,248,0.2,0.4,97,0.00,,,0.00,WUHU216HW,2013-08-07 06:16:00,
2013-08-07 02:22:00,65.7,64.7,29.83,North,0,0.0,0.0,97,0.00,,,0.00,WUHU216HW,2013-08-07 06:22:00,
2013-08-07 02:27:00,65.7,64.7,29.83,West,270,0.2,0.7,97,0.00,,,0.00,WUHU216HW,2013-08-07 06:27:00,
2013-08-07 02:32:00,65.5,64.5,29.83,SE,135,0.2,0.4,97,0.00,,,0.00,WUHU216HW,2013-08-07 06:32:00,
2013-08-07 02:37:00,65.5,64.5,29.83,SSW,203,0.6,0.9,97,0.00,,,0.00,WUHU216HW,2013-08-07 06:37:00,
2013-08-07 02:42:00,65.5,64.5,29.83,SSE,158,0.1,0.4,97,0.00,,,0.00,WUHU216HW,2013-08-07 06:42:00,
2013-08-07 02:47:00,65.5,64.5,29.83,SE,135,0.1,0.2,97,0.00,,,0.00,WUHU216HW,2013-08-07 06:47:00,
2013-08-07 02:52:00,65.3,64.3,29.83,North,0,0.0,0.0,97,0.00,,,0.00,WUHU216HW,2013-08-07 06:52:00,
2013-08-07 02:57:00,65.3,64.3,29.83,South,180,0.1,0.4,97,0.00,,,0.00,WUHU216HW,2013-08-07 06:57:00,
2013-08-07 03:02:00,65.2,64.5,29.82,ENE,68,0.2,0.4,98,0.00,,,0.00,WUHU216HW,2013-08-07 07:02:00,
2013-08-07 03:07:00,65.2,64.2,29.83,SW,221,0.9,1.1,97,0.00,,,0.00,WUHU216HW,2013-08-07 07:07:00,
2013-08-07 03:12:00,65.3,64.3,29.82,SW,217,0.9,1.1,97,0.00,,,0.00,WUHU216HW,2013-08-07 07:12:00,
2013-08-07 03:17:00,65.3,64.3,29.82,SSE,158,0.0,0.4,97,0.00,,,0.00,WUHU216HW,2013-08-07 07:17:00,
2013-08-07 03:22:00,65.3,64.3,29.81,North,0,0.0,0.0,97,0.00,,,0.00,WUHU216HW,2013-08-07 07:22:00,
2013-08-07 03:27:00,65.5,64.5,29.81,SSW,203,1.3,1.8,97,0.00,,,0.00,WUHU216HW,2013-08-07 07:27:00,
2013-08-07 03:32:00,65.7,64.7,29.81,SSW,213,0.7,1.1,97,0.00,,,0.00,WUHU216HW,2013-08-07 07:32:00,
2013-08-07 03:37:00,65.7,64.7,29.81,SW,217,0.3,0.9,97,0.00,,,0.00,WUHU216HW,2013-08-07 07:37:00,
2013-08-07 03:42:00,65.7,64.7,29.81,South,177,0.8,1.6,97,0.00,,,0.00,WUHU216HW,2013-08-07 07:42:00,
2013-08-07 03:47:00,65.7,64.7,29.80,SSE,158,0.0,0.2,97,0.00,,,0.00,WUHU216HW,2013-08-07 07:47:00,
2013-08-07 03:52:00,65.7,64.7,29.80,East,98,0.6,1.1,97,0.00,,,0.00,WUHU216HW,2013-08-07 07:52:00,
2013-08-07 03:57:00,65.9,64.9,29.80,SSW,204,2.0,3.4,97,0.00,,,0.00,WUHU216HW,2013-08-07 07:57:00,
2013-08-07 04:02:00,65.7,64.7,29.80,WSW,248,0.6,0.7,97,0.00,,,0.00,WUHU216HW,2013-08-07 08:02:00,
2013-08-07 04:07:00,65.9,64.9,29.80,West,270,0.5,0.9,97,0.00,,,0.00,WUHU216HW,2013-08-07 08:07:00,
2013-08-07 04:12:00,65.9,64.9,29.81,South,180,0.5,0.7,97,0.00,,,0.00,WUHU216HW,2013-08-07 08:12:00,
2013-08-07 04:17:00,65.7,64.7,29.81,North,0,0.0,0.0,97,0.00,,,0.00,WUHU216HW,2013-08-07 08:17:00,
2013-08-07 04:22:00,65.5,64.5,29.81,North,0,0.0,0.0,97,0.00,,,0.00,WUHU216HW,2013-08-07 08:22:00,
2013-08-07 04:27:00,65.3,64.6,29.80,North,0,0.0,0.0,98,0.00,,,0.00,WUHU216HW,2013-08-07 08:27:00,
2013-08-07 04:32:00,65.2,64.5,29.80,South,187,1.2,1.6,98,0.00,,,0.00,WUHU216HW,2013-08-07 08:32:00,
2013-08-07 04:37:00,65.3,64.6,29.80,ESE,113,0.5,0.7,98,0.00,,,0.00,WUHU216HW,2013-08-07 08:37:00,
2013-08-07 04:42:00,65.5,64.8,29.80,North,0,0.0,0.0,98,0.00,,,0.00,WUHU216HW,2013-08-07 08:42:00,
2013-08-07 04:47:00,65.3,64.6,29.80,North,0,0.0,0.0,98,0.00,,,0.00,WUHU216HW,2013-08-07 08:47:00,
2013-08-07 04:52:00,65.5,64.8,29.80,SE,143,0.4,1.1,98,0.00,,,0.00,WUHU216HW,2013-08-07 08:52:00,
2013-08-07 04:57:00,65.5,64.8,29.80,North,0,0.0,0.0,98,0.00,,,0.00,WUHU216HW,2013-08-07 08:57:00,
2013-08-07 05:02:00,65.5,64.8,29.79,SSE,158,0.2,0.4,98,0.00,,,0.00,WUHU216HW,2013-08-07 09:02:00,
2013-08-07 05:08:00,65.7,64.7,29.79,North,0,0.0,0.0,97,0.00,,,0.00,WUHU216HW,2013-08-07 09:08:00,
2013-08-07 05:13:00,65.7,65.0,29.79,North,0,0.0,0.0,98,0.00,,,0.00,WUHU216HW,2013-08-07 09:13:00,
2013-08-07 05:18:00,65.9,65.2,29.79,North,0,0.0,0.0,98,0.00,,,0.00,WUHU216HW,2013-08-07 09:18:00,
2013-08-07 05:23:00,65.9,64.9,29.79,North,0,0.0,0.0,97,0.00,,,0.00,WUHU216HW,2013-08-07 09:23:00,
2013-08-07 05:28:00,65.9,65.2,29.79,South,178,0.6,1.3,98,0.00,,,0.00,WUHU216HW,2013-08-07 09:28:00,
2013-08-07 05:33:00,65.9,65.2,29.79,North,0,0.0,0.0,98,0.00,,,0.00,WUHU216HW,2013-08-07 09:33:00,
2013-08-07 05:38:00,65.7,65.0,29.79,North,0,0.0,0.0,98,0.00,,,0.00,WUHU216HW,2013-08-07 09:38:00,
2013-08-07 05:43:00,65.7,65.0,29.80,SSE,158,0.4,0.4,98,0.00,,,0.00,WUHU216HW,2013-08-07 09:43:00,
2013-08-07 05:48:00,65.7,65.0,29.80,North,0,0.0,0.0,98,0.00,,,0.00,WUHU216HW,2013-08-07 09:48:00,
2013-08-07 05:53:00,65.7,65.0,29.80,SE,128,0.1,0.4,98,0.00,,,0.00,WUHU216HW,2013-08-07 09:53:00,
2013-08-07 05:58:00,65.7,65.0,29.80,North,0,0.0,0.0,98,0.00,,,0.00,WUHU216HW,2013-08-07 09:58:00,
2013-08-07 06:03:00,65.9,65.2,29.80,WSW,252,0.5,0.9,98,0.00,,,0.00,WUHU216HW,2013-08-07 10:03:00,
2013-08-07 06:08:00,66.2,65.2,29.80,WSW,241,0.8,1.1,97,0.00,,,0.00,WUHU216HW,2013-08-07 10:08:00,
2013-08-07 06:13:00,66.4,65.4,29.80,SW,223,0.9,1.3,97,0.00,,,0.00,WUHU216HW,2013-08-07 10:13:00,
2013-08-07 06:18:00,66.6,65.6,29.80,SW,221,1.4,1.8,97,0.00,,,0.00,WUHU216HW,2013-08-07 10:18:00,
2013-08-07 06:23:00,66.8,65.8,29.80,SSW,210,1.1,1.3,97,0.00,,,0.00,WUHU216HW,2013-08-07 10:23:00,
2013-08-07 06:28:00,66.8,65.8,29.80,SW,220,2.1,2.5,97,0.00,,,0.00,WUHU216HW,2013-08-07 10:28:00,
2013-08-07 06:33:00,67.0,66.0,29.80,SW,218,2.1,2.5,97,0.00,,,0.00,WUHU216HW,2013-08-07 10:33:00,
2013-08-07 06:38:00,67.1,66.1,29.80,SW,222,1.7,3.4,97,0.00,,,0.00,WUHU216HW,2013-08-07 10:38:00,
2013-08-07 06:43:00,67.1,66.1,29.81,WSW,253,0.7,1.3,97,0.00,,,0.00,WUHU216HW,2013-08-07 10:43:00,
2013-08-07 06:48:00,67.3,66.3,29.83,NNE,27,3.5,5.6,97,0.00,,,0.00,WUHU216HW,2013-08-07 10:48:00,
2013-08-07 06:53:00,66.6,65.9,29.84,ENE,63,3.1,4.7,98,0.00,,,0.00,WUHU216HW,2013-08-07 10:53:00,
2013-08-07 06:58:00,65.7,65.0,29.84,ENE,72,1.7,2.0,98,0.02,,,0.02,WUHU216HW,2013-08-07 10:58:00,
2013-08-07 07:03:00,65.0,64.3,29.84,NNE,31,3.6,5.8,98,0.02,,,0.02,WUHU216HW,2013-08-07 11:03:00,
2013-08-07 07:08:00,64.4,63.7,29.84,NW,319,0.7,0.9,98,0.02,,,0.02,WUHU216HW,2013-08-07 11:08:00,
2013-08-07 07:13:00,64.3,63.6,29.83,NNE,21,1.1,1.3,98,0.04,,,0.04,WUHU216HW,2013-08-07 11:13:00,
2013-08-07 07:18:00,63.7,63.0,29.83,NNE,23,0.4,0.4,98,0.04,,,0.04,WUHU216HW,2013-08-07 11:18:00,
2013-08-07 07:23:00,63.7,63.0,29.83,North,0,0.0,0.0,98,0.04,,,0.04,WUHU216HW,2013-08-07 11:23:00,
2013-08-07 07:28:00,63.7,63.0,29.83,North,0,0.0,0.0,98,0.04,,,0.04,WUHU216HW,2013-08-07 11:28:00,
2013-08-07 07:33:00,63.7,63.0,29.82,East,90,2.2,2.5,98,0.04,,,0.04,WUHU216HW,2013-08-07 11:33:00,
2013-08-07 07:38:00,63.5,62.8,29.81,East,90,1.0,1.3,98,0.04,,,0.04,WUHU216HW,2013-08-07 11:38:00,
2013-08-07 07:44:00,63.5,62.8,29.82,ESE,119,0.9,1.1,98,0.04,,,0.04,WUHU216HW,2013-08-07 11:44:00,
2013-08-07 07:49:00,63.5,62.8,29.83,North,0,0.0,0.0,98,0.04,,,0.04,WUHU216HW,2013-08-07 11:49:00,
2013-08-07 07:54:00,63.7,63.0,29.83,North,0,0.0,0.0,98,0.04,,,0.04,WUHU216HW,2013-08-07 11:54:00,
2013-08-07 07:59:00,63.7,63.0,29.84,West,270,0.2,0.2,98,0.02,,,0.04,WUHU216HW,2013-08-07 11:59:00,
2013-08-07 08:04:00,63.7,63.0,29.83,East,90,0.9,1.3,98,0.02,,,0.04,WUHU216HW,2013-08-07 12:04:00,
2013-08-07 08:09:00,63.7,63.0,29.84,ESE,113,1.0,1.1,98,0.02,,,0.04,WUHU216HW,2013-08-07 12:09:00,
2013-08-07 08:14:00,64.1,63.4,29.84,ENE,68,0.5,0.7,98,0.00,,,0.04,WUHU216HW,2013-08-07 12:14:00,
2013-08-07 08:19:00,64.3,63.6,29.84,SE,135,0.1,0.4,98,0.00,,,0.04,WUHU216HW,2013-08-07 12:19:00,
2013-08-07 08:24:00,64.4,63.7,29.85,South,175,0.5,0.7,98,0.00,,,0.04,WUHU216HW,2013-08-07 12:24:00,
2013-08-07 08:29:00,64.8,64.1,29.85,SSW,203,0.1,0.2,98,0.00,,,0.04,WUHU216HW,2013-08-07 12:29:00,
2013-08-07 08:34:00,65.0,64.3,29.85,SSE,162,0.2,0.7,98,0.00,,,0.04,WUHU216HW,2013-08-07 12:34:00,
2013-08-07 08:39:00,65.2,64.9,29.85,SSE,158,0.2,0.4,99,0.00,,,0.04,WUHU216HW,2013-08-07 12:39:00,
2013-08-07 08:44:00,65.5,64.8,29.84,ESE,113,1.1,1.1,98,0.00,,,0.04,WUHU216HW,2013-08-07 12:44:00,
2013-08-07 08:49:00,66.1,65.4,29.84,SSW,194,0.5,1.1,98,0.00,,,0.04,WUHU216HW,2013-08-07 12:49:00,
2013-08-07 08:54:00,66.6,65.9,29.85,SW,214,1.1,1.1,98,0.00,,,0.04,WUHU216HW,2013-08-07 12:54:00,
2013-08-07 08:59:00,67.5,66.8,29.85,SSW,194,1.8,2.0,98,0.00,,,0.04,WUHU216HW,2013-08-07 12:59:00,
2013-08-07 09:04:00,68.2,67.5,29.85,SW,234,1.5,1.6,98,0.00,,,0.04,WUHU216HW,2013-08-07 13:04:00,
2013-08-07 09:09:00,68.4,67.7,29.85,SSW,201,1.9,2.5,98,0.00,,,0.04,WUHU216HW,2013-08-07 13:09:00,
2013-08-07 09:14:00,67.9,67.2,29.85,SSW,200,1.5,1.8,98,0.00,,,0.04,WUHU216HW,2013-08-07 13:14:00,
2013-08-07 09:19:00,67.5,66.8,29.85,SSW,199,1.9,2.0,98,0.00,,,0.04,WUHU216HW,2013-08-07 13:19:00,
2013-08-07 09:24:00,67.1,66.4,29.85,SW,225,0.4,0.4,98,0.00,,,0.04,WUHU216HW,2013-08-07 13:24:00,
2013-08-07 09:29:00,66.8,66.1,29.85,North,0,0.0,0.0,98,0.02,,,0.06,WUHU216HW,2013-08-07 13:29:00,
2013-08-07 09:34:00,66.6,65.9,29.84,West,270,0.6,1.1,98,0.04,,,0.08,WUHU216HW,2013-08-07 13:34:00,
2013-08-07 09:39:00,66.2,65.5,29.83,East,98,2.4,3.1,98,0.05,,,0.09,WUHU216HW,2013-08-07 13:39:00,
2013-08-07 09:44:00,65.9,65.2,29.83,WSW,255,1.4,1.8,98,0.07,,,0.11,WUHU216HW,2013-08-07 13:44:00,
2013-08-07 09:49:00,65.7,65.0,29.82,SW,222,2.2,3.4,98,0.08,,,0.12,WUHU216HW,2013-08-07 13:49:00,
2013-08-07 09:54:00,65.5,65.2,29.81,ESE,119,3.8,4.7,99,0.10,,,0.14,WUHU216HW,2013-08-07 13:54:00,
2013-08-07 09:59:00,65.3,65.0,29.81,ESE,108,2.2,4.5,99,0.10,,,0.14,WUHU216HW,2013-08-07 13:59:00,
2013-08-07 10:04:00,65.2,64.5,29.79,East,93,4.2,5.1,98,0.10,,,0.14,WUHU216HW,2013-08-07 14:04:00,
2013-08-07 10:07:00,65.2,64.5,29.80,West,270,1.7,2.2,98,0.10,,,0.14,WUHU216HW,2013-08-07 14:07:00,
2013-08-07 10:13:00,64.8,64.1,29.79,North,0,1.0,1.1,98,0.10,,,0.14,WUHU216HW,2013-08-07 14:13:00,
2013-08-07 10:18:00,65.0,64.3,29.79,SSW,199,2.3,4.0,98,0.10,,,0.14,WUHU216HW,2013-08-07 14:18:00,
2013-08-07 10:23:00,65.3,65.0,29.79,SSW,195,2.3,2.5,99,0.10,,,0.14,WUHU216HW,2013-08-07 14:23:00,
2013-08-07 10:28:00,65.5,64.8,29.78,SSW,212,1.9,2.5,98,0.08,,,0.14,WUHU216HW,2013-08-07 14:28:00,
2013-08-07 10:33:00,66.2,65.5,29.79,SW,223,1.4,2.5,98,0.07,,,0.14,WUHU216HW,2013-08-07 14:33:00,
2013-08-07 10:38:00,67.0,66.3,29.78,SW,222,2.0,3.4,98,0.06,,,0.14,WUHU216HW,2013-08-07 14:38:00,
2013-08-07 10:43:00,67.3,66.6,29.79,WNW,283,0.4,0.4,98,0.04,,,0.14,WUHU216HW,2013-08-07 14:43:00,
2013-08-07 10:48:00,68.2,67.5,29.79,SW,216,4.9,6.9,98,0.02,,,0.14,WUHU216HW,2013-08-07 14:48:00,
2013-08-07 10:53:00,68.8,68.1,29.80,West,260,2.5,3.6,98,0.01,,,0.14,WUHU216HW,2013-08-07 14:53:00,
2013-08-07 10:58:00,69.5,68.5,29.80,SSW,196,1.7,3.8,97,0.00,,,0.14,WUHU216HW,2013-08-07 14:58:00,
2013-08-07 11:03:00,70.2,69.2,29.81,SSW,198,3.6,4.3,97,0.00,,,0.14,WUHU216HW,2013-08-07 15:03:00,
2013-08-07 11:08:00,70.9,69.5,29.80,South,185,3.7,6.3,96,0.00,,,0.14,WUHU216HW,2013-08-07 15:08:00,
2013-08-07 11:13:00,70.9,69.2,29.80,SW,215,5.7,7.2,94,0.00,,,0.14,WUHU216HW,2013-08-07 15:13:00,
2013-08-07 11:18:00,70.9,69.2,29.80,SW,234,3.9,5.4,94,0.00,,,0.14,WUHU216HW,2013-08-07 15:18:00,
2013-08-07 11:23:00,70.7,69.0,29.80,SW,217,4.3,7.4,94,0.00,,,0.14,WUHU216HW,2013-08-07 15:23:00,
2013-08-07 11:28:00,70.7,69.0,29.80,SW,235,2.6,4.0,94,0.00,,,0.14,WUHU216HW,2013-08-07 15:28:00,
2013-08-07 11:33:00,71.6,69.9,29.80,WSW,237,5.2,6.3,94,0.00,,,0.14,WUHU216HW,2013-08-07 15:33:00,
2013-08-07 11:38:00,72.7,71.0,29.80,SSW,195,3.5,7.2,94,0.00,,,0.14,WUHU216HW,2013-08-07 15:38:00,
2013-08-07 11:43:00,74.2,72.5,29.80,SSW,206,3.5,4.7,94,0.00,,,0.14,WUHU216HW,2013-08-07 15:43:00,
2013-08-07 11:48:00,75.2,73.1,29.80,SSW,200,4.1,6.0,93,0.00,,,0.14,WUHU216HW,2013-08-07 15:48:00,
2013-08-07 11:53:00,75.6,73.1,29.80,SW,222,3.0,4.5,92,0.00,,,0.14,WUHU216HW,2013-08-07 15:53:00,
2013-08-07 11:58:00,76.0,72.5,29.80,WSW,257,5.5,7.8,89,0.00,,,0.14,WUHU216HW,2013-08-07 15:58:00,
2013-08-07 12:03:00,76.5,72.6,29.80,South,180,5.6,7.2,88,0.00,,,0.14,WUHU216HW,2013-08-07 16:03:00,
2013-08-07 12:08:00,77.0,73.1,29.80,SW,229,2.7,4.7,88,0.00,,,0.14,WUHU216HW,2013-08-07 16:08:00,
2013-08-07 12:13:00,77.8,73.5,29.80,SSW,200,3.9,6.3,87,0.00,,,0.14,WUHU216HW,2013-08-07 16:13:00,
2013-08-07 12:18:00,77.9,73.2,29.80,SW,234,4.2,5.8,85,0.00,,,0.14,WUHU216HW,2013-08-07 16:18:00,
2013-08-07 12:23:00,77.6,72.5,29.80,WSW,238,5.4,6.3,84,0.00,,,0.14,WUHU216HW,2013-08-07 16:23:00,
2013-08-07 12:28:00,77.2,72.1,29.80,SW,222,6.2,6.9,84,0.00,,,0.14,WUHU216HW,2013-08-07 16:28:00,
2013-08-07 12:33:00,77.0,71.9,29.81,WSW,248,5.1,8.5,84,0.00,,,0.14,WUHU216HW,2013-08-07 16:33:00,
2013-08-07 12:38:00,76.7,71.7,29.81,WSW,241,5.7,7.4,84,0.00,,,0.14,WUHU216HW,2013-08-07 16:38:00,
2013-08-07 12:43:00,76.5,71.1,29.80,SW,235,8.2,11.4,83,0.00,,,0.14,WUHU216HW,2013-08-07 16:43:00,
2013-08-07 12:48:00,76.7,71.7,29.80,WSW,245,7.3,9.2,84,0.00,,,0.14,WUHU216HW,2013-08-07 16:48:00,
2013-08-07 12:53:00,77.9,72.8,29.79,WSW,249,4.9,5.6,84,0.00,,,0.14,WUHU216HW,2013-08-07 16:53:00,
2013-08-07 12:59:00,78.8,72.5,29.79,SW,220,7.0,8.5,81,0.00,,,0.14,WUHU216HW,2013-08-07 16:59:00,
2013-08-07 13:04:00,79.2,72.9,29.79,WSW,251,6.1,8.1,81,0.00,,,0.14,WUHU216HW,2013-08-07 17:04:00,
2013-08-07 13:09:00,79.6,72.9,29.79,WSW,244,7.0,8.7,80,0.00,,,0.14,WUHU216HW,2013-08-07 17:09:00,
2013-08-07 13:14:00,79.7,73.0,29.79,WSW,248,6.1,9.2,80,0.00,,,0.14,WUHU216HW,2013-08-07 17:14:00,
2013-08-07 13:19:00,80.6,73.9,29.79,WNW,297,4.9,6.5,80,0.00,,,0.14,WUHU216HW,2013-08-07 17:19:00,
2013-08-07 13:24:00,80.8,73.7,29.80,SW,228,5.8,6.9,79,0.00,,,0.14,WUHU216HW,2013-08-07 17:24:00,
2013-08-07 13:29:00,81.0,72.6,29.80,SW,217,8.2,9.2,75,0.00,,,0.14,WUHU216HW,2013-08-07 17:29:00,
2013-08-07 13:34:00,80.6,72.7,29.80,SW,231,8.3,9.8,76,0.00,,,0.14,WUHU216HW,2013-08-07 17:34:00,
2013-08-07 13:39:00,81.2,73.7,29.79,SW,229,8.5,10.5,78,0.00,,,0.14,WUHU216HW,2013-08-07 17:39:00,
2013-08-07 13:44:00,81.2,72.8,29.80,WSW,248,6.1,8.5,75,0.00,,,0.14,WUHU216HW,2013-08-07 17:44:00,
2013-08-07 13:49:00,81.7,73.7,29.80,West,262,3.3,4.0,76,0.00,,,0.14,WUHU216HW,2013-08-07 17:49:00,
2013-08-07 13:54:00,82.4,74.8,29.79,SSW,196,4.4,4.5,78,0.00,,,0.14,WUHU216HW,2013-08-07 17:54:00,
2013-08-07 13:59:00,83.0,75.4,29.79,SW,230,5.9,7.2,78,0.00,,,0.14,WUHU216HW,2013-08-07 17:59:00,
2013-08-07 14:04:00,83.7,75.2,29.80,WNW,291,4.6,6.5,75,0.00,,,0.14,WUHU216HW,2013-08-07 18:04:00,
2013-08-07 14:09:00,83.9,75.4,29.80,WNW,282,3.4,5.8,75,0.00,,,0.14,WUHU216HW,2013-08-07 18:09:00,
2013-08-07 14:14:00,83.9,75.0,29.80,WSW,249,6.1,6.9,74,0.00,,,0.14,WUHU216HW,2013-08-07 18:14:00,
2013-08-07 14:19:00,82.8,73.9,29.80,SW,231,7.2,8.5,74,0.00,,,0.14,WUHU216HW,2013-08-07 18:19:00,
2013-08-07 14:24:00,82.3,73.5,29.80,West,264,2.6,4.3,74,0.00,,,0.14,WUHU216HW,2013-08-07 18:24:00,
2013-08-07 14:29:00,82.8,74.4,29.80,WNW,291,3.4,4.7,75,0.00,,,0.14,WUHU216HW,2013-08-07 18:29:00,
2013-08-07 14:34:00,83.3,74.9,29.80,SSW,192,4.6,8.3,75,0.00,,,0.14,WUHU216HW,2013-08-07 18:34:00,
2013-08-07 14:39:00,84.2,75.7,29.80,SW,233,6.6,7.6,75,0.00,,,0.14,WUHU216HW,2013-08-07 18:39:00,
2013-08-07 14:44:00,84.6,75.7,29.79,WSW,238,5.2,7.4,74,0.00,,,0.14,WUHU216HW,2013-08-07 18:44:00,
2013-08-07 14:49:00,84.6,75.2,29.79,WSW,240,5.8,7.2,73,0.00,,,0.14,WUHU216HW,2013-08-07 18:49:00,
2013-08-07 14:54:00,84.2,75.3,29.80,SW,235,4.9,5.4,74,0.00,,,0.14,WUHU216HW,2013-08-07 18:54:00,
2013-08-07 14:59:00,84.8,75.9,29.80,SW,228,6.3,8.1,74,0.00,,,0.14,WUHU216HW,2013-08-07 18:59:00,
2013-08-07 15:04:00,85.1,75.7,29.80,West,265,3.4,4.0,73,0.00,,,0.14,WUHU216HW,2013-08-07 19:04:00,
2013-08-07 15:09:00,85.3,76.4,29.80,SW,224,4.3,4.9,74,0.00,,,0.14,WUHU216HW,2013-08-07 19:09:00,
2013-08-07 15:14:00,86.0,77.0,29.80,WSW,250,4.5,5.6,74,0.00,,,0.14,WUHU216HW,2013-08-07 19:14:00,
2013-08-07 15:19:00,86.4,77.0,29.80,SW,225,5.3,6.9,73,0.00,,,0.14,WUHU216HW,2013-08-07 19:19:00,
2013-08-07 15:24:00,86.4,76.5,29.81,SW,220,1.8,1.8,72,0.00,,,0.14,WUHU216HW,2013-08-07 19:24:00,
2013-08-07 15:30:00,86.4,76.1,29.81,WSW,238,5.0,6.0,71,0.00,,,0.14,WUHU216HW,2013-08-07 19:30:00,
2013-08-07 15:35:00,85.9,76.0,29.81,WSW,237,5.3,7.2,72,0.00,,,0.14,WUHU216HW,2013-08-07 19:35:00,
2013-08-07 15:40:00,85.7,75.4,29.81,West,261,5.9,8.5,71,0.00,,,0.14,WUHU216HW,2013-08-07 19:40:00,
2013-08-07 15:45:00,85.1,75.3,29.81,SW,233,4.4,7.6,72,0.00,,,0.14,WUHU216HW,2013-08-07 19:45:00,
2013-08-07 15:50:00,85.7,75.8,29.80,West,265,3.7,4.5,72,0.00,,,0.14,WUHU216HW,2013-08-07 19:50:00,
2013-08-07 15:55:00,86.0,76.1,29.80,SSW,197,5.6,6.0,72,0.00,,,0.14,WUHU216HW,2013-08-07 19:55:00,
2013-08-07 16:00:00,86.6,76.2,29.80,WSW,251,4.8,6.0,71,0.00,,,0.14,WUHU216HW,2013-08-07 20:00:00,
2013-08-07 16:05:00,86.9,76.5,29.80,SW,225,6.0,6.7,71,0.00,,,0.14,WUHU216HW,2013-08-07 20:05:00,
2013-08-07 16:10:00,86.9,76.1,29.80,West,269,4.0,5.4,70,0.00,,,0.14,WUHU216HW,2013-08-07 20:10:00,
2013-08-07 16:15:00,87.1,76.3,29.80,WSW,245,2.7,3.8,70,0.00,,,0.14,WUHU216HW,2013-08-07 20:15:00,
2013-08-07 16:20:00,86.9,76.1,29.80,West,264,3.7,5.6,70,0.00,,,0.14,WUHU216HW,2013-08-07 20:20:00,
2013-08-07 16:25:00,86.8,76.4,29.80,SW,221,4.8,5.4,71,0.00,,,0.14,WUHU216HW,2013-08-07 20:25:00,
2013-08-07 16:30:00,86.0,75.7,29.80,SW,234,2.3,4.3,71,0.00,,,0.14,WUHU216HW,2013-08-07 20:30:00,
2013-08-07 16:35:00,85.9,75.6,29.80,West,259,1.8,3.8,71,0.00,,,0.14,WUHU216HW,2013-08-07 20:35:00,
2013-08-07 16:40:00,86.6,76.7,29.80,WSW,255,1.7,2.9,72,0.00,,,0.14,WUHU216HW,2013-08-07 20:40:00,
2013-08-07 16:45:00,86.8,76.9,29.80,WSW,243,5.3,6.3,72,0.00,,,0.14,WUHU216HW,2013-08-07 20:45:00,
2013-08-07 16:50:00,86.8,76.9,29.80,SW,232,3.8,5.6,72,0.00,,,0.14,WUHU216HW,2013-08-07 20:50:00,
2013-08-07 16:55:00,86.8,77.4,29.80,West,259,3.2,5.1,73,0.00,,,0.14,WUHU216HW,2013-08-07 20:55:00,
2013-08-07 17:00:00,86.4,76.5,29.80,WSW,249,4.3,6.5,72,0.00,,,0.14,WUHU216HW,2013-08-07 21:00:00,
2013-08-07 17:05:00,85.7,76.3,29.80,WSW,238,4.8,5.8,73,0.00,,,0.14,WUHU216HW,2013-08-07 21:05:00,
2013-08-07 17:10:00,85.7,76.3,29.79,WSW,253,5.5,5.6,73,0.00,,,0.14,WUHU216HW,2013-08-07 21:10:00,
2013-08-07 17:15:00,86.0,76.6,29.80,SSW,206,6.6,8.1,73,0.00,,,0.14,WUHU216HW,2013-08-07 21:15:00,
2013-08-07 17:20:00,86.4,77.4,29.80,SW,214,4.6,5.1,74,0.00,,,0.14,WUHU216HW,2013-08-07 21:20:00,
2013-08-07 17:25:00,86.8,76.4,29.80,WSW,246,5.6,6.7,71,0.00,,,0.14,WUHU216HW,2013-08-07 21:25:00,
2013-08-07 17:30:00,86.0,75.7,29.79,West,271,4.7,6.9,71,0.00,,,0.14,WUHU216HW,2013-08-07 21:30:00,
2013-08-07 17:35:00,85.7,76.3,29.79,WSW,237,4.3,5.4,73,0.00,,,0.14,WUHU216HW,2013-08-07 21:35:00,
2013-08-07 17:40:00,86.0,76.6,29.79,SW,217,4.4,4.9,73,0.00,,,0.14,WUHU216HW,2013-08-07 21:40:00,
2013-08-07 17:45:00,86.2,76.3,29.79,WSW,248,2.6,3.6,72,0.00,,,0.14,WUHU216HW,2013-08-07 21:45:00,
2013-08-07 17:50:00,86.6,77.2,29.79,WSW,242,3.5,4.5,73,0.00,,,0.14,WUHU216HW,2013-08-07 21:50:00,
2013-08-07 17:56:00,86.8,76.9,29.79,SSW,211,4.9,6.3,72,0.00,,,0.14,WUHU216HW,2013-08-07 21:56:00,
2013-08-07 18:01:00,87.1,77.6,29.79,WNW,292,2.3,3.8,73,0.00,,,0.14,WUHU216HW,2013-08-07 22:01:00,
2013-08-07 18:06:00,86.6,76.2,29.79,SW,219,3.0,4.7,71,0.00,,,0.14,WUHU216HW,2013-08-07 22:06:00,
2013-08-07 18:11:00,86.0,76.6,29.79,SW,223,5.6,6.3,73,0.00,,,0.14,WUHU216HW,2013-08-07 22:11:00,
2013-08-07 18:16:00,86.4,76.5,29.79,West,280,3.8,4.5,72,0.00,,,0.14,WUHU216HW,2013-08-07 22:16:00,
2013-08-07 18:21:00,85.9,76.5,29.79,SW,236,4.3,6.7,73,0.00,,,0.14,WUHU216HW,2013-08-07 22:21:00,
2013-08-07 18:26:00,85.5,76.1,29.79,WSW,241,2.0,2.5,73,0.00,,,0.14,WUHU216HW,2013-08-07 22:26:00,
2013-08-07 18:31:00,85.1,76.2,29.79,WSW,258,1.9,2.5,74,0.00,,,0.14,WUHU216HW,2013-08-07 22:31:00,
2013-08-07 18:36:00,85.1,76.6,29.79,WSW,243,1.7,2.5,75,0.00,,,0.14,WUHU216HW,2013-08-07 22:36:00,
2013-08-07 18:41:00,85.0,76.5,29.79,WSW,254,2.7,2.7,75,0.00,,,0.14,WUHU216HW,2013-08-07 22:41:00,
2013-08-07 18:46:00,84.6,76.1,29.79,West,260,1.6,1.8,75,0.00,,,0.14,WUHU216HW,2013-08-07 22:46:00,
2013-08-07 18:51:00,84.6,76.1,29.79,WSW,242,1.1,1.8,75,0.00,,,0.14,WUHU216HW,2013-08-07 22:51:00,
2013-08-07 18:56:00,84.8,76.7,29.79,SW,227,2.0,5.6,76,0.00,,,0.14,WUHU216HW,2013-08-07 22:56:00,
2013-08-07 19:01:00,84.8,76.3,29.79,West,277,1.8,2.5,75,0.00,,,0.14,WUHU216HW,2013-08-07 23:01:00,
2013-08-07 19:06:00,84.2,75.7,29.79,SW,219,3.3,4.0,75,0.00,,,0.14,WUHU216HW,2013-08-07 23:06:00,
2013-08-07 19:11:00,83.9,75.9,29.79,WSW,238,5.4,7.2,76,0.00,,,0.14,WUHU216HW,2013-08-07 23:11:00,
2013-08-07 19:16:00,83.2,75.6,29.79,West,259,1.4,2.5,78,0.00,,,0.14,WUHU216HW,2013-08-07 23:16:00,
2013-08-07 19:21:00,83.0,75.8,29.79,SW,228,2.7,4.0,79,0.00,,,0.14,WUHU216HW,2013-08-07 23:21:00,
2013-08-07 19:26:00,82.6,75.4,29.79,WSW,252,2.1,2.5,79,0.00,,,0.14,WUHU216HW,2013-08-07 23:26:00,
2013-08-07 19:31:00,82.4,75.2,29.79,WSW,242,3.4,3.8,79,0.00,,,0.14,WUHU216HW,2013-08-07 23:31:00,
2013-08-07 19:36:00,81.7,74.6,29.80,SW,225,3.8,4.0,79,0.00,,,0.14,WUHU216HW,2013-08-07 23:36:00,
2013-08-07 19:41:00,81.2,74.1,29.79,SW,219,1.8,3.6,79,0.00,,,0.14,WUHU216HW,2013-08-07 23:41:00,
2013-08-07 19:46:00,80.8,74.1,29.79,SW,229,5.4,6.0,80,0.00,,,0.14,WUHU216HW,2013-08-07 23:46:00,
2013-08-07 19:51:00,80.3,73.6,29.80,WSW,253,1.8,2.7,80,0.00,,,0.14,WUHU216HW,2013-08-07 23:51:00,
2013-08-07 19:56:00,80.1,73.8,29.79,SW,234,2.6,3.1,81,0.00,,,0.14,WUHU216HW,2013-08-07 23:56:00,
2013-08-07 20:01:00,79.7,73.4,29.79,West,267,4.4,5.4,81,0.00,,,0.14,WUHU216HW,2013-08-08 00:01:00,
2013-08-07 20:06:00,79.2,73.3,29.79,SSW,206,2.7,4.0,82,0.00,,,0.14,WUHU216HW,2013-08-08 00:06:00,
2013-08-07 20:11:00,78.8,73.3,29.80,West,274,2.8,3.1,83,0.00,,,0.14,WUHU216HW,2013-08-08 00:11:00,
2013-08-07 20:16:00,78.5,73.0,29.80,SW,221,1.3,2.2,83,0.00,,,0.14,WUHU216HW,2013-08-08 00:16:00,
2013-08-07 20:21:00,78.1,73.0,29.80,SSW,207,0.7,1.1,84,0.00,,,0.14,WUHU216HW,2013-08-08 00:21:00,
2013-08-07 20:26:00,77.8,72.7,29.80,SSW,210,1.7,2.9,84,0.00,,,0.14,WUHU216HW,2013-08-08 00:26:00,
2013-08-07 20:31:00,77.6,72.5,29.80,WSW,240,1.9,2.5,84,0.00,,,0.14,WUHU216HW,2013-08-08 00:31:00,
2013-08-07 20:36:00,77.2,72.5,29.80,NW,315,0.4,0.7,85,0.00,,,0.14,WUHU216HW,2013-08-08 00:36:00,
2013-08-07 20:42:00,77.0,72.3,29.80,SW,236,1.5,3.6,85,0.00,,,0.14,WUHU216HW,2013-08-08 00:42:00,
2013-08-07 20:47:00,76.7,72.4,29.81,West,267,1.2,2.0,87,0.00,,,0.14,WUHU216HW,2013-08-08 00:47:00,
2013-08-07 20:52:00,76.3,72.0,29.81,WSW,248,0.3,0.4,87,0.00,,,0.14,WUHU216HW,2013-08-08 00:52:00,
2013-08-07 20:57:00,76.1,72.2,29.81,WSW,248,1.5,2.2,88,0.00,,,0.14,WUHU216HW,2013-08-08 00:57:00,
2013-08-07 21:02:00,75.8,71.9,29.81,SW,225,2.3,3.8,88,0.00,,,0.14,WUHU216HW,2013-08-08 01:02:00,
2013-08-07 21:07:00,75.4,71.9,29.81,WSW,248,1.2,1.8,89,0.00,,,0.14,WUHU216HW,2013-08-08 01:07:00,
2013-08-07 21:12:00,75.1,71.6,29.81,SW,219,1.5,1.8,89,0.00,,,0.14,WUHU216HW,2013-08-08 01:12:00,
2013-08-07 21:17:00,74.9,71.7,29.81,WSW,240,1.9,2.5,90,0.00,,,0.14,WUHU216HW,2013-08-08 01:17:00,
2013-08-07 21:22:00,74.5,71.3,29.81,SW,225,1.7,2.2,90,0.00,,,0.14,WUHU216HW,2013-08-08 01:22:00,
2013-08-07 21:27:00,74.3,71.5,29.82,SSW,203,0.8,1.6,91,0.00,,,0.14,WUHU216HW,2013-08-08 01:27:00,
2013-08-07 21:32:00,74.2,71.4,29.82,West,270,1.8,3.4,91,0.00,,,0.14,WUHU216HW,2013-08-08 01:32:00,
2013-08-07 21:37:00,74.0,71.2,29.82,WSW,248,0.8,1.6,91,0.00,,,0.14,WUHU216HW,2013-08-08 01:37:00,
2013-08-07 21:42:00,73.8,71.0,29.82,North,0,0.0,0.0,91,0.00,,,0.14,WUHU216HW,2013-08-08 01:42:00,
2013-08-07 21:47:00,73.4,70.6,29.83,WSW,248,0.9,1.1,91,0.00,,,0.14,WUHU216HW,2013-08-08 01:47:00,
2013-08-07 21:52:00,73.1,70.7,29.83,WSW,248,0.6,0.7,92,0.00,,,0.14,WUHU216HW,2013-08-08 01:52:00,
2013-08-07 21:57:00,72.7,70.3,29.84,North,0,0.0,0.0,92,0.00,,,0.14,WUHU216HW,2013-08-08 01:57:00,
2013-08-07 22:02:00,72.5,70.1,29.84,North,0,0.0,0.0,92,0.00,,,0.14,WUHU216HW,2013-08-08 02:02:00,
2013-08-07 22:07:00,72.4,70.0,29.84,North,0,0.0,0.0,92,0.00,,,0.14,WUHU216HW,2013-08-08 02:07:00,
2013-08-07 22:12:00,72.0,69.6,29.85,North,0,0.0,0.0,92,0.00,,,0.14,WUHU216HW,2013-08-08 02:12:00,
2013-08-07 22:17:00,71.8,69.4,29.85,North,0,0.0,0.0,92,0.00,,,0.14,WUHU216HW,2013-08-08 02:17:00,
2013-08-07 22:22:00,71.6,69.5,29.85,West,270,0.5,0.9,93,0.00,,,0.14,WUHU216HW,2013-08-08 02:22:00,
2013-08-07 22:27:00,71.6,69.5,29.85,West,270,0.7,0.9,93,0.00,,,0.14,WUHU216HW,2013-08-08 02:27:00,
2013-08-07 22:32:00,71.6,69.5,29.86,West,270,0.5,0.7,93,0.00,,,0.14,WUHU216HW,2013-08-08 02:32:00,
2013-08-07 22:37:00,71.6,69.5,29.86,West,270,0.1,0.2,93,0.00,,,0.14,WUHU216HW,2013-08-08 02:37:00,
2013-08-07 22:42:00,71.5,69.4,29.86,North,0,0.0,0.0,93,0.00,,,0.14,WUHU216HW,2013-08-08 02:42:00,
2013-08-07 22:48:00,71.5,69.4,29.87,WSW,248,0.3,0.7,93,0.00,,,0.14,WUHU216HW,2013-08-08 02:48:00,
2013-08-07 22:53:00,71.5,69.8,29.87,North,0,0.0,0.0,94,0.00,,,0.14,WUHU216HW,2013-08-08 02:53:00,
2013-08-07 22:58:00,71.3,69.6,29.87,North,0,0.0,0.0,94,0.00,,,0.14,WUHU216HW,2013-08-08 02:58:00,
2013-08-07 23:03:00,71.3,69.6,29.87,North,0,0.0,0.0,94,0.00,,,0.14,WUHU216HW,2013-08-08 03:03:00,
2013-08-07 23:08:00,70.9,69.2,29.87,WSW,237,0.3,1.1,94,0.00,,,0.14,WUHU216HW,2013-08-08 03:08:00,
2013-08-07 23:13:00,70.7,69.0,29.87,North,0,0.0,0.0,94,0.00,,,0.14,WUHU216HW,2013-08-08 03:13:00,
2013-08-07 23:18:00,70.6,68.9,29.87,NNE,23,0.1,0.4,94,0.00,,,0.14,WUHU216HW,2013-08-08 03:18:00,
2013-08-07 23:23:00,70.4,68.7,29.87,North,0,0.0,0.0,94,0.00,,,0.14,WUHU216HW,2013-08-08 03:23:00,
2013-08-07 23:28:00,70.2,68.5,29.88,North,0,0.0,0.0,94,0.00,,,0.14,WUHU216HW,2013-08-08 03:28:00,
2013-08-07 23:33:00,70.2,68.5,29.88,NNE,23,0.0,0.2,94,0.00,,,0.14,WUHU216HW,2013-08-08 03:33:00,
2013-08-07 23:38:00,70.2,68.5,29.88,North,0,0.0,0.0,94,0.00,,,0.14,WUHU216HW,2013-08-08 03:38:00,
2013-08-07 23:43:00,70.2,68.8,29.88,NNE,23,0.1,0.2,96,0.00,,,0.14,WUHU216HW,2013-08-08 03:43:00,
2013-08-07 23:48:00,70.2,68.8,29.88,North,0,0.0,0.0,96,0.00,,,0.14,WUHU216HW,2013-08-08 03:48:00,
2013-08-07 23:53:00,70.2,68.8,29.88,NNE,23,0.1,0.4,96,0.00,,,0.14,WUHU216HW,2013-08-08 03:53:00,
2013-08-07 23:58:00,70.2,68.5,29.88,NNE,23,0.2,0.4,94,0.00,,,0.14,WUHU216HW,2013-08-08 03:58:00,